aviador You're here:

KTWF Decoded Metar

TWIN FALLS in ID, USA
Report Time2018-07-18 22:53:00
UTC Time2018-07-18 23:50:09
Flight Rules vfr VFR
Wind290° at 11 kt
W.Decomp.*RWY 25: 10.0 kt HW 4.5 kt RCW
RWY 30: 9.9 kt HW 4.8 kt LCW
W.Rank290° ranks 14
Current wind is above 290° avg. (9.3)
Visibility9999 m
Phenomena:N/A
Clouds:N/A
Expected CloudBase > 11,600 ft AGL from Temp-Dew spread
CeilingNone
Temp35°C (ISA +28)
Dew Point06°C (16% RH)
Heat Index32.7°C
AAT30.0°C
QNH1018 hPa
Density Alt7,283 ft
Elevation4,154 ft
Report Wrong Elevation
Raw Report
KTWF 182253Z 29011KT 10SM CLR 35/06 A3006 RMK AO2 SLP116
T03500061=

Extra information for KTWF:More info

Metar Taf Metar & Taf Last 4 Metars F.Rules Stats Wind Profile Meteogram Temp Stats Airport Information Weather charts Add Link Nearby VenuesMetar ALERT Operation Metar Decoded Social comments

AIRNAV info for KTWF